Time;durP1;ratioP1;P1;durP2;ratioP2;P2;SDS_P1;SDS_P2;PMS_P1;PMS_P2;Temp;Humidity;BMP_temperature;BMP_pressure;BME280_temperature;BME280_humidity;BME280_pressure;Samples;Min_cycle;Max_cycle;Signal;HPM_P1;HPM_P2
2024/03/12 00:00:16;;;;;;;26.67;12.97;;;7.70;99.90;;;;;;5051877;28;20028;-51
2024/03/12 00:02:45;;;;;;;31.80;12.73;;;7.60;99.90;;;;;;5051766;28;20482;-54
2024/03/12 00:05:16;;;;;;;31.70;13.55;;;7.60;99.90;;;;;;5051664;28;20029;-54
2024/03/12 00:07:51;;;;;;;35.57;14.43;;;7.70;99.90;;;;;;5051498;28;20037;-54
2024/03/12 00:10:19;;;;;;;35.37;14.77;;;7.70;99.90;;;;;;5051349;28;20025;-55
2024/03/12 00:12:49;;;;;;;36.17;14.37;;;7.80;99.90;;;;;;5051389;28;20338;-54
2024/03/12 00:15:22;;;;;;;32.33;13.43;;;7.80;99.90;;;;;;5033371;28;20033;-54
2024/03/12 00:17:50;;;;;;;32.57;13.87;;;7.80;99.90;;;;;;5051461;28;20041;-54
2024/03/12 00:20:17;;;;;;;34.53;13.70;;;7.80;99.90;;;;;;5051005;28;20156;-53
2024/03/12 00:22:47;;;;;;;34.03;14.23;;;7.70;99.90;;;;;;5033305;28;20120;-54
2024/03/12 00:25:19;;;;;;;35.67;15.13;;;7.80;99.90;;;;;;5051179;28;20086;-51
2024/03/12 00:27:45;;;;;;;39.00;15.37;;;7.80;99.90;;;;;;5051457;28;20033;-53
2024/03/12 00:30:11;;;;;;;40.20;15.50;;;7.90;99.90;;;;;;5050925;28;20036;-51
2024/03/12 00:32:38;;;;;;;41.13;16.17;;;7.80;99.90;;;;;;5051196;28;20040;-54
2024/03/12 00:35:05;;;;;;;42.03;17.00;;;7.90;99.90;;;;;;5051272;28;20426;-52
2024/03/12 00:37:31;;;;;;;42.43;17.13;;;7.90;99.90;;;;;;5051344;28;20100;-51
2024/03/12 00:39:57;;;;;;;41.20;16.97;;;8.00;99.90;;;;;;5051085;28;20501;-50
2024/03/12 00:42:22;;;;;;;48.73;18.13;;;8.00;99.90;;;;;;5051101;28;20033;-53
2024/03/12 00:44:49;;;;;;;48.70;17.63;;;8.00;99.90;;;;;;5051276;28;20524;-53
2024/03/12 00:47:15;;;;;;;48.97;19.00;;;8.00;99.90;;;;;;5051380;28;20098;-51
2024/03/12 00:49:40;;;;;;;45.77;17.57;;;8.10;99.90;;;;;;5051300;28;20083;-53
2024/03/12 00:52:06;;;;;;;46.73;18.53;;;8.10;99.90;;;;;;5051151;28;20466;-53
2024/03/12 00:54:35;;;;;;;46.17;19.03;;;8.10;99.90;;;;;;5050231;28;20704;-54
2024/03/12 00:57:02;;;;;;;46.35;19.05;;;8.10;99.90;;;;;;5051546;28;20454;-54
2024/03/12 00:59:31;;;;;;;50.87;19.90;;;8.10;99.90;;;;;;5050491;28;20033;-53
2024/03/12 01:01:57;;;;;;;49.00;19.80;;;8.00;99.90;;;;;;5050589;28;20033;-54
2024/03/12 01:04:23;;;;;;;48.97;20.90;;;8.10;99.90;;;;;;5050684;28;20392;-52
2024/03/12 01:06:49;;;;;;;48.17;18.53;;;8.10;99.90;;;;;;5050589;28;20115;-51
2024/03/12 01:09:17;;;;;;;51.10;18.53;;;8.10;99.90;;;;;;5050695;28;20029;-55
2024/03/12 01:11:46;;;;;;;48.53;18.53;;;8.00;99.90;;;;;;5050541;28;20028;-53
2024/03/12 01:14:12;;;;;;;46.10;17.35;;;8.00;99.90;;;;;;5050246;28;20033;-53
2024/03/12 01:16:38;;;;;;;48.37;19.17;;;8.00;99.90;;;;;;5050517;28;20458;-54
2024/03/12 01:19:07;;;;;;;47.87;19.87;;;8.00;99.90;;;;;;5050659;28;20132;-53
2024/03/12 01:21:34;;;;;;;43.97;19.63;;;8.00;99.90;;;;;;5050033;28;20036;-53
2024/03/12 01:24:01;;;;;;;55.90;21.00;;;8.00;99.90;;;;;;5049579;28;20029;-53
2024/03/12 01:26:27;;;;;;;53.80;21.53;;;8.00;99.90;;;;;;5050247;28;20067;-54
2024/03/12 01:28:53;;;;;;;59.40;22.60;;;8.00;99.90;;;;;;5050391;28;20029;-54
2024/03/12 01:31:21;;;;;;;58.57;22.00;;;8.00;99.90;;;;;;5050243;28;20386;-53
2024/03/12 01:33:47;;;;;;;62.63;23.48;;;8.00;99.90;;;;;;5050360;28;20036;-53
2024/03/12 01:36:20;;;;;;;57.07;23.20;;;8.00;99.90;;;;;;5050179;28;20366;-54
2024/03/12 01:38:48;;;;;;;64.57;23.20;;;8.00;99.90;;;;;;5050325;28;20039;-54
2024/03/12 01:41:15;;;;;;;62.07;22.80;;;8.00;99.90;;;;;;5050209;28;20041;-54
2024/03/12 01:43:42;;;;;;;65.33;22.40;;;7.90;99.90;;;;;;5050418;28;20792;-54
2024/03/12 01:46:10;;;;;;;62.47;23.87;;;7.90;99.90;;;;;;5050250;28;20041;-54
2024/03/12 01:48:38;;;;;;;62.80;23.70;;;7.80;99.90;;;;;;5050262;28;20041;-52
2024/03/12 01:51:05;;;;;;;64.40;23.83;;;7.80;99.90;;;;;;5050375;28;20037;-53
2024/03/12 01:53:33;;;;;;;64.13;24.17;;;7.80;99.90;;;;;;5050230;28;20120;-54
2024/03/12 01:56:00;;;;;;;63.37;24.27;;;7.80;99.90;;;;;;5050002;28;20150;-51
2024/03/12 01:58:26;;;;;;;68.40;26.20;;;7.80;99.90;;;;;;5050177;28;20120;-54
2024/03/12 02:00:52;;;;;;;70.37;25.07;;;7.80;99.90;;;;;;5050328;28;20032;-54
2024/03/12 02:03:18;;;;;;;66.77;24.10;;;7.80;99.90;;;;;;5050215;28;20033;-52
2024/03/12 02:05:46;;;;;;;61.13;21.47;;;7.70;99.90;;;;;;5050377;28;20046;-50
2024/03/12 02:08:13;;;;;;;61.87;23.00;;;7.70;99.90;;;;;;5054128;28;20041;-54
2024/03/12 02:10:39;;;;;;;63.13;22.60;;;7.70;99.90;;;;;;5054069;28;21165;-54
2024/03/12 02:13:05;;;;;;;64.13;24.37;;;7.70;99.90;;;;;;5054050;28;20033;-53
2024/03/12 02:15:32;;;;;;;69.30;23.87;;;7.70;99.90;;;;;;5053966;28;20025;-53
2024/03/12 02:17:58;;;;;;;68.03;23.60;;;7.60;99.90;;;;;;5054133;28;20094;-54
2024/03/12 02:20:26;;;;;;;71.47;25.37;;;7.60;99.90;;;;;;5053790;28;20029;-54
2024/03/12 02:22:53;;;;;;;65.67;24.00;;;7.60;99.90;;;;;;5053903;28;20044;-53
2024/03/12 02:25:19;;;;;;;64.87;24.87;;;7.60;99.90;;;;;;5054065;28;20120;-50
2024/03/12 02:27:45;;;;;;;66.33;23.30;;;7.60;99.90;;;;;;5054330;28;20147;-52
2024/03/12 02:30:10;;;;;;;71.97;24.53;;;7.60;99.90;;;;;;5053745;28;20036;-53
2024/03/12 02:32:38;;;;;;;74.63;24.80;;;7.60;99.90;;;;;;5053520;28;20052;-53
2024/03/12 02:35:05;;;;;;;68.93;25.43;;;7.60;99.90;;;;;;5035395;28;20041;-50
2024/03/12 02:37:30;;;;;;;61.47;22.60;;;7.70;99.90;;;;;;5053340;28;20040;-53
2024/03/12 02:39:56;;;;;;;63.37;23.40;;;7.70;99.90;;;;;;5053282;28;20037;-53
2024/03/12 02:42:21;;;;;;;57.57;21.73;;;7.70;99.90;;;;;;5053356;28;20588;-51
2024/03/12 02:44:47;;;;;;;61.30;21.67;;;7.70;99.90;;;;;;5054054;28;20033;-53
2024/03/12 02:47:12;;;;;;;56.37;20.73;;;7.70;99.90;;;;;;5053174;28;20025;-53
2024/03/12 02:49:38;;;;;;;54.37;20.00;;;7.80;99.90;;;;;;5053293;28;20575;-53
2024/03/12 02:52:04;;;;;;;59.77;20.73;;;7.70;99.90;;;;;;5052899;28;20029;-52
2024/03/12 02:54:30;;;;;;;52.13;20.37;;;7.70;99.90;;;;;;5053320;28;20200;-50
2024/03/12 02:56:55;;;;;;;55.83;21.07;;;7.60;99.90;;;;;;5053123;28;20039;-54
2024/03/12 02:59:21;;;;;;;50.10;19.83;;;7.60;99.90;;;;;;5052985;28;20069;-54
2024/03/12 03:01:47;;;;;;;50.80;19.47;;;7.60;99.90;;;;;;5052972;28;20125;-54
2024/03/12 03:04:13;;;;;;;47.70;18.60;;;7.60;99.90;;;;;;5052731;28;20112;-54
2024/03/12 03:06:38;;;;;;;51.30;19.53;;;7.60;99.90;;;;;;5052886;28;20079;-53
2024/03/12 03:09:09;;;;;;;47.80;18.20;;;7.70;99.90;;;;;;5052994;28;20083;-54
2024/03/12 03:11:35;;;;;;;46.40;18.80;;;7.70;99.90;;;;;;5053257;28;20021;-54
2024/03/12 03:14:01;;;;;;;45.63;17.30;;;7.70;99.90;;;;;;5052776;28;20124;-54
2024/03/12 03:16:28;;;;;;;41.90;16.70;;;7.70;99.90;;;;;;5052832;28;20181;-54
2024/03/12 03:18:57;;;;;;;39.40;15.67;;;7.70;99.90;;;;;;5052090;28;20037;-53
2024/03/12 03:21:22;;;;;;;42.88;16.13;;;7.80;99.90;;;;;;5052445;28;20033;-54
2024/03/12 03:23:48;;;;;;;37.70;16.27;;;7.70;99.90;;;;;;5052559;28;20055;-54
2024/03/12 03:26:13;;;;;;;37.87;15.17;;;7.70;99.90;;;;;;5034368;28;20122;-51
2024/03/12 03:28:39;;;;;;;38.47;15.80;;;7.80;99.90;;;;;;5052678;28;20481;-54
2024/03/12 03:31:05;;;;;;;36.57;14.77;;;7.80;99.90;;;;;;5052340;28;20052;-54
2024/03/12 03:33:31;;;;;;;34.57;15.03;;;7.80;99.90;;;;;;5052300;28;20025;-54
2024/03/12 03:35:57;;;;;;;33.70;13.80;;;7.80;99.90;;;;;;5052108;28;20115;-52
2024/03/12 03:38:27;;;;;;;33.73;13.53;;;7.80;99.90;;;;;;5051142;28;20044;-54
2024/03/12 03:40:53;;;;;;;32.60;14.47;;;7.90;99.90;;;;;;5052107;28;20553;-54
2024/03/12 03:43:19;;;;;;;29.47;13.63;;;7.80;99.90;;;;;;5052144;28;20128;-54
2024/03/12 03:45:44;;;;;;;32.13;13.17;;;7.80;99.90;;;;;;5052311;28;20032;-53
2024/03/12 03:48:10;;;;;;;27.93;12.77;;;7.80;99.90;;;;;;5052412;28;20025;-50
2024/03/12 03:50:36;;;;;;;29.07;12.47;;;7.80;99.90;;;;;;5052070;28;20482;-54
2024/03/12 03:53:02;;;;;;;28.03;12.50;;;7.70;99.90;;;;;;5052249;28;20036;-53
2024/03/12 03:55:27;;;;;;;29.50;12.77;;;7.70;99.90;;;;;;5052118;28;20038;-51
2024/03/12 03:57:53;;;;;;;28.10;12.43;;;7.70;99.90;;;;;;5052478;28;20373;-50
2024/03/12 04:00:28;;;;;;;31.07;12.80;;;7.70;99.90;;;;;;5052166;28;20029;-52
2024/03/12 04:02:56;;;;;;;28.00;11.97;;;7.70;99.90;;;;;;5052322;28;20071;-54
2024/03/12 04:05:22;;;;;;;30.27;12.73;;;7.80;99.90;;;;;;5052120;28;20155;-54
2024/03/12 04:07:49;;;;;;;32.53;12.80;;;7.70;99.90;;;;;;5052194;28;20120;-53
2024/03/12 04:10:15;;;;;;;28.50;13.00;;;7.70;99.90;;;;;;5051855;28;20470;-54
2024/03/12 04:12:45;;;;;;;28.03;13.10;;;7.70;99.90;;;;;;5051943;28;20037;-54
2024/03/12 04:15:12;;;;;;;31.63;13.00;;;7.70;99.90;;;;;;5051669;28;20025;-54
2024/03/12 04:17:38;;;;;;;31.07;13.23;;;7.60;99.90;;;;;;5051657;28;20432;-51
2024/03/12 04:20:11;;;;;;;28.90;11.60;;;7.70;99.90;;;;;;5051704;28;20029;-54
2024/03/12 04:22:38;;;;;;;27.33;12.23;;;7.60;99.90;;;;;;5051555;28;20041;-53
2024/03/12 04:25:07;;;;;;;26.53;11.23;;;7.60;99.90;;;;;;5051370;28;20029;-53
2024/03/12 04:27:36;;;;;;;25.97;11.80;;;7.60;99.90;;;;;;5033579;28;20451;-54
2024/03/12 04:30:09;;;;;;;23.40;11.48;;;7.60;99.90;;;;;;5050429;28;20036;-54
2024/03/12 04:32:35;;;;;;;27.50;12.00;;;7.60;99.90;;;;;;5051385;28;20119;-54
2024/03/12 04:35:12;;;;;;;25.67;10.43;;;7.50;99.90;;;;;;5051305;28;20422;-54
2024/03/12 04:37:38;;;;;;;23.83;11.73;;;7.60;99.90;;;;;;5051500;28;20041;-51
2024/03/12 04:40:06;;;;;;;25.27;11.03;;;7.50;99.90;;;;;;5051310;28;20374;-54
2024/03/12 04:42:34;;;;;;;23.03;11.20;;;7.50;99.90;;;;;;5051023;28;20033;-53
2024/03/12 04:45:00;;;;;;;28.43;11.70;;;7.50;99.90;;;;;;5051234;28;20119;-54
2024/03/12 04:47:25;;;;;;;25.83;11.07;;;7.50;99.90;;;;;;5051270;28;20064;-54
2024/03/12 04:49:52;;;;;;;25.90;11.87;;;7.50;99.90;;;;;;5051104;28;20028;-50
2024/03/12 04:52:18;;;;;;;23.37;11.27;;;7.50;99.90;;;;;;5051142;28;20077;-50
2024/03/12 04:54:43;;;;;;;26.93;11.20;;;7.60;99.90;;;;;;5032979;28;20060;-54
2024/03/12 04:57:09;;;;;;;24.30;11.00;;;7.50;99.90;;;;;;5050821;28;20044;-54
2024/03/12 04:59:35;;;;;;;26.93;11.40;;;7.50;99.90;;;;;;5050868;28;20037;-53
2024/03/12 05:02:00;;;;;;;26.27;11.57;;;7.50;99.90;;;;;;5050769;28;20037;-51
2024/03/12 05:04:26;;;;;;;25.83;11.60;;;7.50;99.90;;;;;;5032762;28;20025;-53
2024/03/12 05:06:52;;;;;;;24.57;11.53;;;7.50;99.90;;;;;;5050770;28;20024;-54
2024/03/12 05:09:18;;;;;;;22.80;10.17;;;7.50;99.90;;;;;;5050776;28;20059;-53
2024/03/12 05:11:44;;;;;;;23.07;10.00;;;7.50;99.90;;;;;;5050381;28;20465;-54
2024/03/12 05:14:10;;;;;;;21.80;10.73;;;7.60;99.90;;;;;;5050571;28;20047;-54
2024/03/12 05:16:36;;;;;;;22.93;9.57;;;7.50;99.90;;;;;;5050396;28;20025;-53
2024/03/12 05:19:02;;;;;;;23.33;10.00;;;7.50;99.90;;;;;;5050508;28;20417;-53
2024/03/12 05:21:28;;;;;;;20.47;9.47;;;7.50;99.90;;;;;;5050358;28;20035;-53
2024/03/12 05:23:54;;;;;;;19.67;9.80;;;7.50;99.90;;;;;;5050199;28;20029;-54
2024/03/12 05:26:25;;;;;;;20.50;10.03;;;7.50;99.90;;;;;;5040388;28;20030;-54
2024/03/12 05:29:01;;;;;;;22.30;9.87;;;7.50;99.90;;;;;;5029924;28;20128;-53
2024/03/12 05:31:32;;;;;;;20.30;9.77;;;7.50;99.90;;;;;;5029910;28;20489;-54
2024/03/12 05:33:59;;;;;;;21.30;10.20;;;7.50;99.90;;;;;;5030515;28;20039;-54
2024/03/12 05:36:29;;;;;;;22.00;9.93;;;7.50;99.90;;;;;;5030270;28;20491;-52
2024/03/12 05:39:03;;;;;;;20.33;9.70;;;7.50;99.90;;;;;;5030297;28;20048;-53
2024/03/12 05:41:40;;;;;;;20.10;8.87;;;7.50;99.90;;;;;;5032911;28;20087;-50
2024/03/12 05:49:39;;;;;;;27.67;10.67;;;7.40;99.90;;;;;;5034872;28;20029;-49
2024/03/12 05:52:05;;;;;;;26.40;10.20;;;7.40;99.90;;;;;;5034624;28;20112;-53
2024/03/12 05:54:32;;;;;;;21.87;9.53;;;7.40;99.90;;;;;;5016374;28;20405;-53
2024/03/12 05:56:58;;;;;;;23.40;9.70;;;7.40;99.90;;;;;;5034452;28;20041;-52
2024/03/12 05:59:25;;;;;;;21.60;9.93;;;7.40;99.90;;;;;;5034215;28;20109;-53
2024/03/12 06:01:52;;;;;;;20.83;9.23;;;7.40;99.90;;;;;;5033852;28;20037;-54
2024/03/12 06:04:18;;;;;;;20.63;10.33;;;7.40;99.90;;;;;;5034145;28;20517;-53
2024/03/12 06:06:44;;;;;;;25.97;9.93;;;7.50;99.90;;;;;;5034553;28;20029;-54
2024/03/12 06:09:10;;;;;;;21.63;8.80;;;7.50;99.90;;;;;;5034889;28;20063;-52
2024/03/12 06:11:36;;;;;;;19.47;9.67;;;7.50;99.90;;;;;;5035081;28;20033;-53
2024/03/12 06:14:05;;;;;;;19.70;8.77;;;7.50;99.90;;;;;;5035016;28;20041;-54
2024/03/12 06:16:32;;;;;;;;;;;7.50;99.90;;;;;;5035677;28;20544;-53
2024/03/12 06:18:57;;;;;;;19.20;8.57;;;7.50;99.90;;;;;;5035183;28;19954;-51
2024/03/12 06:21:23;;;;;;;21.50;9.33;;;7.50;99.90;;;;;;5034716;28;20041;-53
2024/03/12 06:23:48;;;;;;;20.10;9.77;;;7.50;99.90;;;;;;5028271;28;20040;-51
2024/03/12 06:26:14;;;;;;;21.00;8.30;;;7.50;99.90;;;;;;5053287;28;20043;-52
2024/03/12 06:28:40;;;;;;;19.00;8.03;;;7.50;99.90;;;;;;5035805;28;20466;-54
2024/03/12 06:31:05;;;;;;;22.47;9.30;;;7.40;99.90;;;;;;5053385;28;20358;-53
2024/03/12 06:33:32;;;;;;;19.83;9.07;;;7.40;99.90;;;;;;5053518;28;20033;-51
2024/03/12 06:35:57;;;;;;;19.37;8.97;;;7.40;99.90;;;;;;5053269;28;20082;-54
2024/03/12 06:38:23;;;;;;;16.00;7.67;;;7.40;99.90;;;;;;5053493;28;20437;-54
2024/03/12 06:40:49;;;;;;;19.73;9.27;;;7.40;99.90;;;;;;5052757;28;20040;-54
2024/03/12 06:43:17;;;;;;;19.80;8.63;;;7.30;99.90;;;;;;5053019;28;20021;-53
2024/03/12 06:45:43;;;;;;;18.50;8.30;;;7.40;99.90;;;;;;5052943;28;20143;-54
2024/03/12 06:48:09;;;;;;;19.90;8.70;;;7.30;99.90;;;;;;5053383;28;20509;-51
2024/03/12 06:50:34;;;;;;;21.93;9.47;;;7.30;99.90;;;;;;5053036;28;20021;-54
2024/03/12 06:53:00;;;;;;;21.27;9.30;;;7.40;99.90;;;;;;5052113;28;20358;-55
2024/03/12 06:55:27;;;;;;;16.83;7.73;;;7.40;99.90;;;;;;5052834;28;20029;-54
2024/03/12 06:57:59;;;;;;;22.67;9.40;;;7.40;99.90;;;;;;5052863;28;20044;-54
2024/03/12 07:00:39;;;;;;;18.60;9.33;;;7.40;99.90;;;;;;5052747;28;20044;-54
2024/03/12 07:03:06;;;;;;;20.13;9.70;;;7.30;99.90;;;;;;5052760;28;20385;-54
2024/03/12 07:05:43;;;;;;;21.53;9.40;;;7.30;99.90;;;;;;5052673;28;20103;-55
2024/03/12 07:08:10;;;;;;;23.97;9.90;;;7.30;99.90;;;;;;5052756;28;20430;-54
2024/03/12 07:10:40;;;;;;;22.33;10.63;;;7.30;99.90;;;;;;5052526;28;20098;-54
2024/03/12 07:13:07;;;;;;;26.03;10.00;;;7.30;99.90;;;;;;5052857;28;20497;-52
2024/03/12 07:15:35;;;;;;;22.53;9.50;;;7.30;99.90;;;;;;5052422;28;20091;-52
2024/03/12 07:18:02;;;;;;;25.73;10.13;;;7.30;99.90;;;;;;5052523;28;20025;-54
2024/03/12 07:20:29;;;;;;;25.90;11.13;;;7.20;99.90;;;;;;5052418;28;20063;-53
2024/03/12 07:22:58;;;;;;;25.87;10.70;;;7.20;99.90;;;;;;5052109;28;20041;-50
2024/03/12 07:25:25;;;;;;;27.27;10.68;;;7.30;99.90;;;;;;5034415;28;20136;-51
2024/03/12 07:27:55;;;;;;;31.43;11.60;;;7.30;99.90;;;;;;5052822;28;20025;-54
2024/03/12 07:30:22;;;;;;;31.00;12.17;;;7.30;99.90;;;;;;5052980;28;20036;-54
2024/03/12 07:32:48;;;;;;;23.83;10.87;;;7.30;99.90;;;;;;5052554;28;20085;-54
2024/03/12 07:35:13;;;;;;;30.03;11.33;;;7.30;99.90;;;;;;5052210;28;20032;-52
2024/03/12 07:37:40;;;;;;;39.60;12.60;;;7.30;99.90;;;;;;5034395;28;20401;-50
2024/03/12 07:40:09;;;;;;;31.47;12.80;;;7.30;99.90;;;;;;5052136;28;20090;-55
2024/03/12 07:42:36;;;;;;;34.50;12.15;;;7.30;99.90;;;;;;5052401;28;20043;-55
2024/03/12 07:45:04;;;;;;;29.03;11.77;;;7.30;99.90;;;;;;5052214;28;20112;-54
2024/03/12 07:47:31;;;;;;;34.47;12.17;;;7.30;99.90;;;;;;5052007;28;20033;-54
2024/03/12 07:49:57;;;;;;;27.93;11.00;;;7.30;99.90;;;;;;5051609;28;20123;-52
2024/03/12 07:52:24;;;;;;;31.93;11.87;;;7.30;99.90;;;;;;5051740;28;20040;-55
2024/03/12 07:54:50;;;;;;;34.57;11.53;;;7.30;99.90;;;;;;5051490;28;20040;-53
2024/03/12 07:57:18;;;;;;;32.83;12.00;;;7.20;99.90;;;;;;5050942;28;20533;-54
2024/03/12 07:59:44;;;;;;;31.47;11.53;;;7.30;99.90;;;;;;5053717;28;20087;-51
2024/03/12 08:02:13;;;;;;;32.27;10.70;;;7.30;99.90;;;;;;5051686;28;20474;-54
2024/03/12 08:04:42;;;;;;;;;;;7.30;99.90;;;;;;5052094;28;20108;-54
2024/03/12 08:07:13;;;;;;;25.42;9.93;;;7.30;99.90;;;;;;5051621;28;20007;-54
2024/03/12 08:09:39;;;;;;;32.20;11.77;;;7.40;99.90;;;;;;5052003;28;20373;-55
2024/03/12 08:12:05;;;;;;;29.40;11.00;;;7.50;99.90;;;;;;5051588;28;20021;-50
2024/03/12 08:14:34;;;;;;;30.17;11.90;;;7.40;99.90;;;;;;5051687;28;20036;-49
2024/03/12 08:17:00;;;;;;;29.17;11.73;;;7.40;99.90;;;;;;5051370;28;20041;-50
2024/03/12 08:19:26;;;;;;;28.50;10.77;;;7.50;99.90;;;;;;5051505;28;20044;-54
2024/03/12 08:21:52;;;;;;;32.00;11.03;;;7.60;99.90;;;;;;5051974;28;20052;-51
2024/03/12 08:24:18;;;;;;;30.17;11.63;;;7.60;99.90;;;;;;5051256;28;20119;-54
2024/03/12 08:26:44;;;;;;;29.20;10.47;;;7.70;99.90;;;;;;5051363;28;20040;-54
2024/03/12 08:29:11;;;;;;;23.70;9.90;;;7.70;99.90;;;;;;5032941;28;20033;-55
2024/03/12 08:31:40;;;;;;;21.03;8.97;;;7.80;99.90;;;;;;5049272;28;20051;-53
2024/03/12 08:34:05;;;;;;;20.25;8.70;;;7.80;99.90;;;;;;5049954;28;20136;-54
2024/03/12 08:36:33;;;;;;;23.17;9.57;;;7.80;99.90;;;;;;5049775;28;20124;-53
2024/03/12 08:38:59;;;;;;;24.73;8.90;;;7.80;99.90;;;;;;5045297;28;20036;-54
2024/03/12 08:41:25;;;;;;;18.00;8.30;;;7.70;99.90;;;;;;5012457;28;20045;-54
2024/03/12 08:43:51;;;;;;;24.00;8.73;;;7.70;99.90;;;;;;5030412;28;20059;-54
2024/03/12 08:46:17;;;;;;;20.93;9.50;;;7.70;99.90;;;;;;5029817;28;20072;-54
2024/03/12 08:48:42;;;;;;;25.80;9.80;;;7.70;99.90;;;;;;5031490;28;20144;-54
2024/03/12 08:51:08;;;;;;;24.90;10.07;;;7.70;99.90;;;;;;5049830;28;20033;-51
2024/03/12 08:53:34;;;;;;;25.73;10.13;;;7.80;99.90;;;;;;5050087;28;20113;-54
2024/03/12 08:56:01;;;;;;;27.60;9.70;;;7.80;99.90;;;;;;5049669;28;20485;-54
2024/03/12 08:58:26;;;;;;;26.93;10.60;;;7.80;99.90;;;;;;5032096;28;20416;-54
2024/03/12 09:00:53;;;;;;;29.20;10.63;;;7.80;99.90;;;;;;5048346;28;20033;-54
2024/03/12 09:03:19;;;;;;;27.13;11.07;;;7.80;99.90;;;;;;5029789;28;20367;-53
2024/03/12 09:05:45;;;;;;;26.27;10.50;;;7.80;99.90;;;;;;5029324;28;20053;-54
2024/03/12 09:08:11;;;;;;;27.90;11.87;;;7.70;99.90;;;;;;5030002;28;20029;-53
2024/03/12 09:10:37;;;;;;;28.80;11.83;;;7.80;99.90;;;;;;5029649;28;20148;-53
2024/03/12 09:13:03;;;;;;;27.93;11.83;;;7.90;99.90;;;;;;5047028;28;20032;-51
2024/03/12 09:15:31;;;;;;;26.97;11.30;;;7.90;99.90;;;;;;5045391;28;20052;-54
2024/03/12 09:17:58;;;;;;;31.27;12.43;;;7.90;99.90;;;;;;5037673;28;20450;-50
2024/03/12 09:20:23;;;;;;;31.77;12.73;;;8.00;99.90;;;;;;5039260;28;20131;-53
2024/03/12 09:22:49;;;;;;;31.13;12.33;;;8.10;99.90;;;;;;5030445;28;20778;-52
2024/03/12 09:25:17;;;;;;;33.63;12.00;;;8.10;99.90;;;;;;5029421;28;20103;-53
2024/03/12 09:27:46;;;;;;;29.27;12.27;;;8.10;99.90;;;;;;5012099;28;20505;-54
2024/03/12 09:30:12;;;;;;;29.83;11.43;;;8.00;99.90;;;;;;5029424;28;20944;-53
2024/03/12 09:32:39;;;;;;;30.57;11.83;;;8.00;99.90;;;;;;5011562;28;20120;-53
2024/03/12 09:35:07;;;;;;;30.00;11.90;;;7.90;99.90;;;;;;5011611;28;20037;-53
2024/03/12 09:37:35;;;;;;;30.43;11.83;;;7.90;99.90;;;;;;5011527;28;20060;-53
2024/03/12 09:40:05;;;;;;;28.70;10.77;;;8.00;99.90;;;;;;5045249;28;20036;-49
2024/03/12 09:42:32;;;;;;;26.60;11.17;;;8.00;99.90;;;;;;5041036;28;20120;-54
2024/03/12 09:44:59;;;;;;;25.00;10.80;;;8.10;99.90;;;;;;5029356;28;20053;-49
2024/03/12 09:47:25;;;;;;;33.53;12.70;;;8.20;99.90;;;;;;5042927;28;20064;-53
2024/03/12 09:49:51;;;;;;;31.93;12.17;;;8.30;99.90;;;;;;5047218;28;20132;-51
2024/03/12 09:52:17;;;;;;;28.87;12.10;;;8.50;99.90;;;;;;5034066;28;20078;-50
2024/03/12 09:54:43;;;;;;;26.77;11.60;;;8.40;99.90;;;;;;5049389;28;20048;-54
2024/03/12 09:57:10;;;;;;;28.60;12.23;;;8.50;99.90;;;;;;5049202;28;20041;-53
2024/03/12 09:59:36;;;;;;;27.80;11.87;;;8.50;99.90;;;;;;5034890;28;20098;-54
2024/03/12 10:02:03;;;;;;;31.50;11.90;;;8.40;99.90;;;;;;5029480;28;20037;-54
2024/03/12 10:04:29;;;;;;;27.87;12.73;;;8.40;99.90;;;;;;5033929;28;20029;-51
2024/03/12 10:06:55;;;;;;;34.70;12.83;;;8.40;99.90;;;;;;5041998;28;20432;-53
2024/03/12 10:09:27;;;;;;;29.90;12.07;;;8.40;99.90;;;;;;5040279;28;20474;-53
2024/03/12 10:12:03;;;;;;;32.83;12.87;;;8.50;99.90;;;;;;5049349;28;20041;-54
2024/03/12 10:14:33;;;;;;;25.73;11.80;;;8.50;99.90;;;;;;5032330;28;20033;-54
2024/03/12 10:17:13;;;;;;;31.33;11.67;;;8.40;99.90;;;;;;5043113;28;20041;-53
2024/03/12 10:19:41;;;;;;;29.03;12.07;;;8.50;99.90;;;;;;5029496;28;20033;-54
2024/03/12 10:22:08;;;;;;;27.00;11.87;;;8.50;99.90;;;;;;5028820;28;20398;-54
2024/03/12 10:24:34;;;;;;;31.17;11.83;;;8.60;99.90;;;;;;5028567;28;20036;-53
2024/03/12 10:27:05;;;;;;;27.47;11.73;;;8.50;99.90;;;;;;5029076;28;20108;-53
2024/03/12 10:29:38;;;;;;;27.47;11.23;;;8.50;99.90;;;;;;5032694;28;20025;-52
2024/03/12 10:32:29;;;;;;;30.93;12.00;;;8.50;99.90;;;;;;5045934;28;20028;-50
2024/03/12 10:34:56;;;;;;;29.30;12.27;;;8.50;99.90;;;;;;5051999;28;20037;-54
2024/03/12 10:37:27;;;;;;;30.50;12.27;;;8.50;99.90;;;;;;5052743;28;20063;-54
2024/03/12 10:39:54;;;;;;;28.23;13.00;;;8.50;99.90;;;;;;5052524;28;20021;-54
2024/03/12 10:42:21;;;;;;;28.20;11.57;;;8.50;99.90;;;;;;5052645;28;20051;-55
2024/03/12 10:44:47;;;;;;;27.93;11.83;;;8.50;99.90;;;;;;5052868;28;20021;-54
2024/03/12 10:47:14;;;;;;;30.70;12.47;;;8.50;99.90;;;;;;5052751;28;20024;-52
2024/03/12 10:49:47;;;;;;;26.50;11.20;;;8.50;99.90;;;;;;5035173;28;20063;-52
2024/03/12 10:52:20;;;;;;;28.53;11.10;;;8.50;99.90;;;;;;5053201;28;20448;-54
2024/03/12 10:54:46;;;;;;;25.83;11.37;;;8.50;99.90;;;;;;5050630;28;20029;-54
2024/03/12 10:57:13;;;;;;;23.70;10.20;;;8.60;99.90;;;;;;5046143;28;20463;-54
2024/03/12 10:59:39;;;;;;;31.63;10.90;;;8.70;99.90;;;;;;5031952;28;20108;-54
2024/03/12 11:02:06;;;;;;;23.83;10.17;;;8.70;99.90;;;;;;5045555;28;20036;-53
2024/03/12 11:04:35;;;;;;;22.27;10.23;;;8.90;99.90;;;;;;5036029;28;20048;-54
2024/03/12 11:07:02;;;;;;;22.83;10.25;;;8.80;99.90;;;;;;5035548;28;20025;-54
2024/03/12 11:09:28;;;;;;;25.27;10.43;;;8.90;99.90;;;;;;5052179;28;20021;-55
2024/03/12 11:11:54;;;;;;;23.93;10.17;;;8.90;99.90;;;;;;5041700;28;20118;-55
2024/03/12 11:14:20;;;;;;;24.63;10.10;;;8.90;99.90;;;;;;5040055;28;20080;-55
2024/03/12 11:16:46;;;;;;;27.13;10.53;;;8.90;99.90;;;;;;5052094;28;20111;-54
2024/03/12 11:19:25;;;;;;;26.03;10.70;;;9.00;99.90;;;;;;5052197;28;20029;-54
2024/03/12 11:21:51;;;;;;;22.85;10.45;;;9.00;99.90;;;;;;5051838;28;20044;-55
2024/03/12 11:24:25;;;;;;;23.37;10.17;;;9.00;99.90;;;;;;5045352;28;20030;-54
2024/03/12 11:26:51;;;;;;;26.27;11.67;;;9.00;99.90;;;;;;5031835;28;20026;-53
2024/03/12 11:29:17;;;;;;;29.13;12.97;;;9.10;99.90;;;;;;5032035;28;20091;-54
2024/03/12 11:31:43;;;;;;;26.90;11.33;;;9.10;99.90;;;;;;5048316;28;20037;-54
2024/03/12 11:34:10;;;;;;;24.27;10.67;;;9.20;99.90;;;;;;5031902;28;20525;-51
2024/03/12 11:36:46;;;;;;;24.83;11.03;;;9.20;99.90;;;;;;5031470;28;20041;-50
2024/03/12 11:39:15;;;;;;;27.43;12.53;;;9.30;99.90;;;;;;5038375;28;20606;-49
2024/03/12 11:42:05;;;;;;;27.33;11.70;;;9.50;99.90;;;;;;5031894;28;20025;-54
2024/03/12 11:44:53;;;;;;;29.40;12.70;;;9.60;99.90;;;;;;5031915;28;20437;-55
2024/03/12 11:47:36;;;;;;;29.77;13.03;;;9.70;99.90;;;;;;5032071;28;20030;-53
2024/03/12 11:50:34;;;;;;;29.13;13.57;;;9.70;99.90;;;;;;5013647;28;20056;-55
2024/03/12 11:53:14;;;;;;;28.23;12.43;;;9.60;99.90;;;;;;5044009;28;20041;-54
2024/03/12 11:56:10;;;;;;;31.57;12.67;;;9.50;99.90;;;;;;5031498;28;20037;-53
2024/03/12 11:58:49;;;;;;;27.53;11.87;;;9.30;99.90;;;;;;5035688;28;20040;-50
2024/03/12 12:01:28;;;;;;;28.50;11.60;;;9.20;99.90;;;;;;5051565;28;20043;-54
2024/03/12 12:03:56;;;;;;;29.97;13.67;;;9.10;99.90;;;;;;5051223;28;20036;-54
2024/03/12 12:06:22;;;;;;;32.97;14.37;;;9.10;99.90;;;;;;5033528;28;20053;-54
2024/03/12 12:08:48;;;;;;;27.80;12.27;;;9.20;99.90;;;;;;5034990;28;20099;-54
2024/03/12 12:11:16;;;;;;;33.03;13.33;;;9.30;99.90;;;;;;5044702;28;20557;-53
2024/03/12 12:13:44;;;;;;;30.20;13.37;;;9.30;99.90;;;;;;5041464;28;20104;-52
2024/03/12 12:16:15;;;;;;;32.73;13.90;;;9.40;99.90;;;;;;5051220;28;20047;-53
2024/03/12 12:18:45;;;;;;;29.67;12.20;;;9.50;99.90;;;;;;5032743;28;20040;-53
2024/03/12 12:21:14;;;;;;;;;;;9.60;99.90;;;;;;5036296;28;20040;-55
2024/03/12 12:23:43;;;;;;;30.05;11.20;;;9.60;99.90;;;;;;5042039;28;19913;-55
2024/03/12 12:26:12;;;;;;;;;;;9.60;99.90;;;;;;5031320;28;20044;-52
2024/03/12 12:28:39;;;;;;;26.33;12.07;;;9.70;99.90;;;;;;5013531;28;19985;-51
2024/03/12 12:31:06;;;;;;;26.13;12.03;;;9.80;99.90;;;;;;5032922;28;20036;-54
2024/03/12 12:33:33;;;;;;;30.47;14.00;;;9.90;99.90;;;;;;5044442;28;20498;-50
2024/03/12 12:36:05;;;;;;;28.23;12.73;;;10.10;99.90;;;;;;5030497;28;20116;-50
2024/03/12 12:38:32;;;;;;;29.70;13.83;;;10.10;99.90;;;;;;5043774;28;20040;-50
2024/03/12 12:40:58;;;;;;;32.50;12.83;;;10.10;99.90;;;;;;5033528;28;20051;-54
2024/03/12 12:43:26;;;;;;;31.77;13.73;;;10.20;99.90;;;;;;5050164;28;20041;-54
2024/03/12 12:45:56;;;;;;;30.90;12.80;;;10.10;99.90;;;;;;5043396;28;20022;-53
2024/03/12 12:48:24;;;;;;;32.37;13.10;;;10.20;99.90;;;;;;5030368;28;20033;-51